Time;durP1;ratioP1;P1;durP2;ratioP2;P2;SDS_P1;SDS_P2;PMS_P1;PMS_P2;Temp;Humidity;BMP_temperature;BMP_pressure;BME280_temperature;BME280_humidity;BME280_pressure;Samples;Min_cycle;Max_cycle;Signal;HPM_P1;HPM_P2
2022/07/28 00:01:03;;;;;;;5.32;1.08;;;;;;;13.59;74.35;101803.13;4973166;28;20217;-49
2022/07/28 00:03:29;;;;;;;5.50;1.58;;;;;;;13.62;74.38;101799.44;4972473;28;20189;-50
2022/07/28 00:05:54;;;;;;;3.55;1.20;;;;;;;13.64;74.92;101796.69;4972668;28;20173;-51
2022/07/28 00:08:20;;;;;;;3.55;1.45;;;;;;;13.64;75.22;101794.00;4973041;28;20759;-49
2022/07/28 00:10:45;;;;;;;3.60;1.20;;;;;;;13.58;75.59;101795.13;4972660;28;20678;-48
2022/07/28 00:13:11;;;;;;;4.00;1.33;;;;;;;13.69;75.49;101795.63;4972400;28;20297;-52
2022/07/28 00:15:36;;;;;;;7.65;1.30;;;;;;;13.63;75.53;101794.94;4971288;28;20205;-49
2022/07/28 00:18:02;;;;;;;4.03;1.25;;;;;;;13.55;75.72;101801.47;4972738;28;20178;-49
2022/07/28 00:20:29;;;;;;;4.00;1.20;;;;;;;13.52;76.49;101806.09;4971378;28;20206;-50
2022/07/28 00:22:55;;;;;;;3.22;1.30;;;;;;;13.46;76.14;101798.22;4971994;28;20241;-52
2022/07/28 00:25:21;;;;;;;5.57;1.23;;;;;;;13.48;76.79;101799.94;4972340;28;20182;-50
2022/07/28 00:27:47;;;;;;;4.85;1.33;;;;;;;13.49;77.05;101807.09;4971977;28;20269;-48
2022/07/28 00:30:12;;;;;;;6.80;1.20;;;;;;;13.53;76.85;101807.84;4972618;28;20535;-51
2022/07/28 00:32:38;;;;;;;4.80;1.20;;;;;;;13.55;77.21;101801.47;4972600;28;20181;-49
2022/07/28 00:35:05;;;;;;;4.60;1.30;;;;;;;13.60;76.86;101804.03;4971653;28;20193;-54
2022/07/28 00:37:30;;;;;;;4.40;1.42;;;;;;;13.59;76.77;101810.31;4972389;28;20549;-51
2022/07/28 00:39:56;;;;;;;3.58;1.13;;;;;;;13.60;77.25;101799.50;4972047;28;20159;-50
2022/07/28 00:42:21;;;;;;;3.20;1.13;;;;;;;13.49;77.51;101806.19;4972759;28;20652;-52
2022/07/28 00:44:47;;;;;;;3.95;1.45;;;;;;;13.46;78.00;101809.88;4971730;28;20265;-49
2022/07/28 00:47:13;;;;;;;3.35;1.10;;;;;;;13.47;78.02;101808.94;4971982;28;20555;-52
2022/07/28 00:49:39;;;;;;;6.95;1.27;;;;;;;13.40;77.93;101802.00;4972019;28;20207;-52
2022/07/28 00:52:07;;;;;;;4.32;1.40;;;;;;;13.52;78.21;101806.97;4971890;28;20201;-52
2022/07/28 00:54:33;;;;;;;4.50;1.10;;;;;;;13.55;77.95;101809.53;4971471;28;20166;-54
2022/07/28 00:56:59;;;;;;;3.65;1.00;;;;;;;13.54;77.99;101810.50;4972034;28;20609;-52
2022/07/28 00:59:25;;;;;;;4.50;1.60;;;;;;;13.59;78.26;101807.63;4971844;28;20214;-53
2022/07/28 01:01:52;;;;;;;2.55;1.00;;;;;;;13.57;78.45;101806.81;4971806;28;20270;-52
2022/07/28 01:04:18;;;;;;;6.80;1.75;;;;;;;13.64;78.27;101812.84;4971012;28;20221;-54
2022/07/28 01:07:25;;;;;;;2.88;1.10;;;;;;;13.58;77.98;101809.44;4971177;28;20174;-54
2022/07/28 01:10:12;;;;;;;5.55;1.30;;;;;;;13.57;78.31;101799.59;4971437;28;20242;-53
2022/07/28 01:13:09;;;;;;;4.05;1.20;;;;;;;13.49;78.68;101806.19;4971603;28;20181;-52
2022/07/28 01:15:45;;;;;;;4.18;0.98;;;;;;;13.42;78.93;101793.88;4971772;28;20177;-52
2022/07/28 01:18:16;;;;;;;4.88;1.45;;;;;;;13.32;79.12;101799.59;4971756;28;20204;-52
2022/07/28 01:20:51;;;;;;;5.68;1.25;;;;;;;13.26;79.56;101805.13;4971632;28;20214;-52
2022/07/28 01:23:31;;;;;;;3.53;0.98;;;;;;;13.02;80.23;101811.34;4970931;28;20198;-51
2022/07/28 01:26:15;;;;;;;4.38;1.20;;;;;;;13.18;80.71;101817.97;4971381;28;20198;-52
2022/07/28 01:28:56;;;;;;;6.60;1.52;;;;;;;13.16;80.39;101815.34;4971223;28;20280;-53
2022/07/28 01:31:24;;;;;;;2.53;1.10;;;;;;;13.20;80.41;101808.03;4970789;28;20217;-51
2022/07/28 01:33:57;;;;;;;2.00;0.95;;;;;;;13.18;80.18;101816.19;4970690;28;20182;-52
2022/07/28 01:36:28;;;;;;;3.13;1.10;;;;;;;13.16;80.64;101809.06;4971227;28;20181;-53
2022/07/28 01:38:55;;;;;;;1.23;0.68;;;;;;;13.22;80.99;101808.84;4971469;28;20171;-53
2022/07/28 01:41:26;;;;;;;4.32;1.08;;;;;;;13.10;81.57;101804.78;4956656;28;20294;-53
2022/07/28 01:44:03;;;;;;;3.70;1.30;;;;;;;13.05;81.85;101805.84;4946771;28;20186;-51
2022/07/28 01:46:30;;;;;;;2.40;0.95;;;;;;;13.11;81.91;101802.97;4975915;28;20189;-53
2022/07/28 01:48:58;;;;;;;2.95;1.13;;;;;;;12.99;82.01;101802.44;4971124;28;20208;-52
2022/07/28 01:51:27;;;;;;;3.35;1.30;;;;;;;12.92;82.64;101806.25;4970972;28;20892;-51
2022/07/28 01:53:55;;;;;;;4.65;1.30;;;;;;;12.83;83.20;101808.34;4971855;28;20557;-51
2022/07/28 01:56:23;;;;;;;3.03;1.23;;;;;;;12.68;83.89;101809.72;4978066;28;20577;-52
2022/07/28 01:58:50;;;;;;;3.15;1.30;;;;;;;12.60;84.39;101815.34;4967285;28;20178;-53
2022/07/28 02:01:18;;;;;;;3.00;1.25;;;;;;;12.60;84.57;101815.34;4971290;28;20745;-52
2022/07/28 02:03:46;;;;;;;3.42;1.40;;;;;;;12.60;84.49;101815.34;4968397;28;20170;-52
2022/07/28 02:06:14;;;;;;;4.78;1.33;;;;;;;12.69;84.36;101815.06;4971199;28;20203;-52
2022/07/28 02:08:40;;;;;;;7.45;1.98;;;;;;;12.77;83.87;101810.31;4970989;28;20711;-52
2022/07/28 02:13:52;;;;;;;1.90;1.23;;;;;;;12.64;84.76;101808.03;4970478;28;20185;-52
2022/07/28 02:16:22;;;;;;;3.05;0.95;;;;;;;12.69;84.93;101809.69;4970664;28;20166;-52
2022/07/28 02:18:49;;;;;;;3.47;1.30;;;;;;;12.56;85.37;101805.59;4971272;28;20249;-51
2022/07/28 02:21:15;;;;;;;4.55;1.40;;;;;;;12.63;84.89;101811.69;4970870;28;20583;-54
2022/07/28 02:23:44;;;;;;;3.78;1.30;;;;;;;12.64;84.53;101817.00;4970678;28;20233;-53
2022/07/28 02:26:12;;;;;;;3.78;1.50;;;;;;;12.66;84.29;101815.16;4970794;28;20724;-51
2022/07/28 02:28:42;;;;;;;4.97;1.33;;;;;;;12.41;84.86;101814.16;4970725;28;20205;-53
2022/07/28 02:31:18;;;;;;;2.90;1.25;;;;;;;12.18;85.26;101810.34;4969969;28;20685;-53
2022/07/28 02:33:46;;;;;;;1.92;1.10;;;;;;;12.30;85.88;101820.72;4970294;28;20666;-52
2022/07/28 02:36:24;;;;;;;4.55;1.67;;;;;;;12.04;85.80;101832.22;4970970;28;20249;-51
2022/07/28 02:38:53;;;;;;;4.38;1.20;;;;;;;11.98;86.59;101827.00;4970678;28;20194;-51
2022/07/28 02:41:28;;;;;;;5.13;1.50;;;;;;;11.76;87.02;101837.41;4970380;28;20213;-53
2022/07/28 02:44:11;;;;;;;4.38;1.30;;;;;;;11.52;88.16;101830.91;4973564;28;20665;-53
2022/07/28 02:46:44;;;;;;;3.30;1.02;;;;;;;11.38;89.10;101838.44;4974356;28;20246;-53
2022/07/28 02:49:18;;;;;;;6.63;1.95;;;;;;;11.38;89.98;101827.72;4974204;28;20209;-53
2022/07/28 02:51:44;;;;;;;5.43;1.60;;;;;;;11.30;89.98;101831.47;4973714;28;20202;-53
2022/07/28 02:54:12;;;;;;;4.40;1.45;;;;;;;11.30;90.69;101835.94;4973760;28;20182;-51
2022/07/28 02:56:39;;;;;;;3.92;1.30;;;;;;;11.51;90.81;101842.56;4973876;28;20182;-54
2022/07/28 02:59:06;;;;;;;4.03;1.40;;;;;;;11.57;90.74;101841.50;4974385;28;20163;-52
2022/07/28 03:01:33;;;;;;;3.17;1.35;;;;;;;11.74;90.45;101844.63;4973897;28;20237;-54
2022/07/28 03:03:59;;;;;;;5.25;1.60;;;;;;;11.69;89.67;101835.84;4973746;28;20177;-52
2022/07/28 03:06:25;;;;;;;5.65;1.65;;;;;;;11.83;89.52;101838.13;4974048;28;20170;-52
2022/07/28 03:08:50;;;;;;;1.48;1.30;;;;;;;11.74;89.83;101850.91;4973326;28;20673;-52
2022/07/28 03:11:16;;;;;;;3.17;1.83;;;;;;;11.73;90.49;101850.94;4973300;28;20248;-54
2022/07/28 03:17:28;;;;;;;4.97;1.83;;;;;;;11.70;91.14;101845.66;4982621;28;20292;-55
2022/07/28 03:19:54;;;;;;;8.35;2.10;;;;;;;11.72;91.02;101859.94;4992374;28;20601;-55
2022/07/28 03:22:20;;;;;;;5.88;2.00;;;;;;;11.64;91.00;101853.88;4989782;28;20203;-55
2022/07/28 03:24:49;;;;;;;7.90;1.60;;;;;;;11.58;90.80;101859.41;4977391;28;20285;-55
2022/07/28 03:27:29;;;;;;;6.13;1.33;;;;;;;11.70;90.90;101859.09;4981013;28;20209;-53
2022/07/28 03:30:03;;;;;;;4.65;1.80;;;;;;;11.47;90.68;101868.59;4992678;28;20198;-53
2022/07/28 03:32:32;;;;;;;4.32;1.80;;;;;;;11.40;91.14;101869.69;4990503;28;20256;-55
2022/07/28 03:34:57;;;;;;;3.92;1.60;;;;;;;11.23;91.60;101870.09;4992147;28;20177;-54
2022/07/28 03:37:28;;;;;;;7.75;1.70;;;;;;;11.03;92.41;101880.41;4992580;28;20633;-53
2022/07/28 03:39:58;;;;;;;3.00;1.58;;;;;;;11.09;93.43;101867.75;4992036;28;20185;-51
2022/07/28 03:42:26;;;;;;;3.70;1.73;;;;;;;11.10;93.40;101877.53;4992896;28;20629;-53
2022/07/28 03:44:52;;;;;;;3.58;1.40;;;;;;;11.10;93.02;101873.97;4980411;28;20186;-52
2022/07/28 03:47:23;;;;;;;6.15;2.25;;;;;;;11.06;92.77;101877.66;4977389;28;20201;-51
2022/07/28 03:49:49;;;;;;;5.63;1.50;;;;;;;10.91;93.14;101877.09;4972799;28;20348;-50
2022/07/28 03:52:14;;;;;;;3.65;1.40;;;;;;;11.07;93.55;101883.00;4972839;28;20265;-51
2022/07/28 03:54:40;;;;;;;4.97;1.52;;;;;;;10.93;93.46;101890.44;4971866;28;20213;-52
2022/07/28 03:57:05;;;;;;;5.57;1.42;;;;;;;11.07;93.80;101884.78;4972484;28;20205;-49
2022/07/28 03:59:31;;;;;;;4.82;1.30;;;;;;;11.00;93.61;101889.41;4972740;28;20271;-51
2022/07/28 04:01:56;;;;;;;5.85;1.67;;;;;;;11.11;93.87;101881.13;4972543;28;20205;-53
2022/07/28 04:04:22;;;;;;;3.47;1.70;;;;;;;11.07;93.99;101891.03;4971936;28;20174;-52
2022/07/28 04:06:48;;;;;;;4.40;1.35;;;;;;;11.13;94.13;101880.16;4972648;28;20250;-51
2022/07/28 04:09:14;;;;;;;2.60;1.30;;;;;;;11.32;94.29;101882.41;4972434;28;20186;-52
2022/07/28 04:11:40;;;;;;;2.83;1.27;;;;;;;11.44;93.80;101883.91;4973039;28;20325;-50
2022/07/28 04:14:06;;;;;;;5.70;1.70;;;;;;;11.49;93.26;101882.84;4972191;28;20170;-50
2022/07/28 04:16:31;;;;;;;1.65;1.08;;;;;;;11.62;92.88;101883.44;4972833;28;20193;-50
2022/07/28 04:18:57;;;;;;;6.30;1.60;;;;;;;11.46;92.13;101877.59;4972625;28;20181;-53
2022/07/28 04:21:22;;;;;;;3.42;1.50;;;;;;;11.48;92.53;101875.75;4971161;28;20224;-52
2022/07/28 04:23:48;;;;;;;4.32;1.60;;;;;;;11.58;92.93;101880.88;4972285;28;20645;-50
2022/07/28 04:26:16;;;;;;;3.75;1.77;;;;;;;11.64;92.64;101880.72;4972241;28;20261;-52
2022/07/28 04:28:41;;;;;;;3.15;1.20;;;;;;;11.56;93.06;101886.28;4991833;28;20213;-53
2022/07/28 04:31:07;;;;;;;3.83;1.52;;;;;;;11.49;93.68;101887.34;4991995;28;20388;-52
2022/07/28 04:33:32;;;;;;;3.92;1.30;;;;;;;11.52;94.09;101898.00;4991263;28;20173;-52
2022/07/28 04:36:00;;;;;;;6.50;1.77;;;;;;;11.58;93.78;101896.97;4991889;28;20182;-51
2022/07/28 04:38:26;;;;;;;4.75;1.90;;;;;;;11.77;93.81;101902.75;4991746;28;20169;-52
2022/07/28 04:40:51;;;;;;;2.83;1.67;;;;;;;11.90;93.25;101913.16;4991828;28;20213;-50
2022/07/28 04:43:17;;;;;;;5.50;1.65;;;;;;;11.86;92.79;101905.19;4990749;28;20224;-54
2022/07/28 04:45:45;;;;;;;4.40;1.63;;;;;;;11.88;92.92;101908.75;4991609;28;20217;-54
2022/07/28 04:48:11;;;;;;;3.55;1.48;;;;;;;11.96;92.65;101906.75;4991600;28;20192;-52
2022/07/28 04:50:39;;;;;;;5.45;1.60;;;;;;;12.10;92.65;101906.38;4991489;28;20201;-52
2022/07/28 04:53:05;;;;;;;3.92;1.65;;;;;;;12.15;92.26;101917.88;4991081;28;20553;-53
2022/07/28 04:55:30;;;;;;;6.07;2.17;;;;;;;12.10;91.96;101914.44;4991222;28;20586;-53
2022/07/28 04:57:56;;;;;;;5.60;1.63;;;;;;;12.31;91.82;101915.63;4991135;28;20268;-53
2022/07/28 05:00:22;;;;;;;4.15;1.80;;;;;;;12.38;91.42;101911.00;4991544;28;20872;-52
2022/07/28 05:02:47;;;;;;;4.63;2.53;;;;;;;12.23;91.01;101906.94;4991230;28;20182;-54
2022/07/28 05:05:13;;;;;;;4.43;1.60;;;;;;;12.42;91.34;101909.97;4990649;28;20591;-53
2022/07/28 05:07:40;;;;;;;3.80;1.50;;;;;;;12.50;90.36;101910.63;4990636;28;20173;-53
2022/07/28 05:10:08;;;;;;;5.07;1.65;;;;;;;12.58;90.04;101908.59;4991255;28;20558;-50
2022/07/28 05:12:34;;;;;;;6.35;1.63;;;;;;;12.72;89.70;101902.81;4991773;28;20169;-49
2022/07/28 05:14:59;;;;;;;4.65;1.50;;;;;;;12.69;89.00;101901.09;4991230;28;20177;-46
2022/07/28 05:17:25;;;;;;;3.50;1.45;;;;;;;12.89;88.89;101907.69;4991409;28;20165;-46
2022/07/28 05:19:50;;;;;;;3.28;1.27;;;;;;;12.79;89.07;101904.41;4991199;28;20169;-48
2022/07/28 05:22:16;;;;;;;3.92;1.48;;;;;;;12.92;89.39;101910.28;4991266;28;20246;-45
2022/07/28 05:24:42;;;;;;;3.00;1.30;;;;;;;13.14;88.78;101897.03;4991217;28;20520;-43
2022/07/28 05:27:07;;;;;;;6.45;1.60;;;;;;;13.00;87.14;101900.16;4990875;28;20185;-44
2022/07/28 05:29:37;;;;;;;7.55;1.58;;;;;;;13.02;87.27;101895.63;4989905;28;20270;-45
2022/07/28 05:32:03;;;;;;;3.90;1.35;;;;;;;13.24;86.79;101897.63;4977011;28;20571;-46
2022/07/28 05:34:30;;;;;;;4.78;1.55;;;;;;;13.37;86.03;101897.19;4971351;28;20178;-46
2022/07/28 05:36:55;;;;;;;4.75;1.58;;;;;;;13.32;84.94;101896.47;4989920;28;20203;-45
2022/07/28 05:39:20;;;;;;;4.57;1.50;;;;;;;13.35;84.13;101900.88;4990748;28;20196;-44
2022/07/28 05:41:46;;;;;;;3.15;1.20;;;;;;;13.33;84.88;101889.28;4991109;28;20271;-42
2022/07/28 05:44:11;;;;;;;6.00;1.58;;;;;;;13.60;84.36;101896.44;4990672;28;20725;-43
2022/07/28 05:46:37;;;;;;;4.22;1.45;;;;;;;13.50;83.65;101899.50;4990908;28;20178;-45
2022/07/28 05:49:02;;;;;;;4.32;1.63;;;;;;;13.44;83.53;101899.69;4991223;28;20240;-43
2022/07/28 05:51:28;;;;;;;4.45;1.55;;;;;;;13.53;83.18;101902.94;4990600;28;20204;-45
2022/07/28 05:53:54;;;;;;;2.42;1.10;;;;;;;13.73;83.01;101906.78;4989607;28;20228;-44
2022/07/28 05:56:21;;;;;;;4.22;1.35;;;;;;;13.81;82.70;101902.03;4975201;28;20201;-46
2022/07/28 05:58:47;;;;;;;3.92;1.40;;;;;;;14.04;81.78;101901.22;4989059;28;20539;-46
2022/07/28 06:01:13;;;;;;;4.10;1.30;;;;;;;14.31;80.73;101902.03;4990669;28;20189;-47
2022/07/28 06:03:38;;;;;;;4.53;1.30;;;;;;;14.13;81.20;101894.63;4991183;28;20672;-45
2022/07/28 06:06:04;;;;;;;3.28;1.30;;;;;;;14.39;80.88;101905.34;4991100;28;20617;-45
2022/07/28 06:08:31;;;;;;;3.17;1.33;;;;;;;14.35;79.32;101909.06;4989325;28;20166;-45
2022/07/28 06:11:08;;;;;;;6.93;1.50;;;;;;;14.56;78.36;101911.94;4990288;28;20648;-46
2022/07/28 06:13:35;;;;;;;4.88;1.45;;;;;;;14.43;77.50;101914.22;4989740;28;20204;-45
2022/07/28 06:16:02;;;;;;;7.00;1.30;;;;;;;14.75;78.15;101909.44;4990041;28;20260;-45
2022/07/28 06:18:27;;;;;;;4.93;1.38;;;;;;;14.83;76.77;101915.41;4993766;28;20173;-46
2022/07/28 06:20:53;;;;;;;4.60;1.05;;;;;;;14.92;76.15;101920.44;4991664;28;20209;-45
2022/07/28 06:23:22;;;;;;;5.80;1.20;;;;;;;14.89;75.69;101922.38;4994534;28;20578;-45
2022/07/28 06:25:49;;;;;;;3.38;1.33;;;;;;;14.73;76.55;101927.50;4994018;28;20739;-48
2022/07/28 06:28:15;;;;;;;4.88;1.63;;;;;;;14.50;77.31;101931.03;4991880;28;20182;-46
2022/07/28 06:30:40;;;;;;;6.22;1.48;;;;;;;14.74;77.09;101931.97;4993838;28;20190;-47
2022/07/28 06:33:06;;;;;;;2.75;1.20;;;;;;;15.00;75.33;101931.84;4992985;28;20634;-48
2022/07/28 06:35:33;;;;;;;2.63;1.10;;;;;;;15.23;74.79;101928.19;4994446;28;20165;-43
2022/07/28 06:37:58;;;;;;;7.53;1.00;;;;;;;15.36;74.01;101938.53;4994401;28;20189;-50
2022/07/28 06:40:24;;;;;;;4.60;1.25;;;;;;;15.40;73.74;101942.88;4994009;28;20224;-46
2022/07/28 06:42:50;;;;;;;2.20;1.30;;;;;;;15.28;73.50;101940.66;4994130;28;20185;-44
2022/07/28 06:45:17;;;;;;;3.85;1.45;;;;;;;15.32;74.27;101935.06;4994212;28;20172;-45
2022/07/28 06:47:43;;;;;;;6.20;1.20;;;;;;;15.37;73.95;101938.47;4994067;28;20186;-44
2022/07/28 06:50:09;;;;;;;3.97;1.15;;;;;;;15.34;73.13;101940.41;4993688;28;20197;-44
2022/07/28 06:52:35;;;;;;;4.65;1.30;;;;;;;15.27;73.63;101944.31;4994247;28;20850;-45
2022/07/28 06:55:02;;;;;;;4.78;1.60;;;;;;;15.19;73.58;101945.47;4994197;28;20197;-48
2022/07/28 06:57:28;;;;;;;3.30;1.00;;;;;;;15.38;73.99;101948.31;4992910;28;20268;-46
2022/07/28 06:59:54;;;;;;;4.22;1.15;;;;;;;15.69;73.39;101938.94;4993782;28;20201;-48
2022/07/28 07:02:19;;;;;;;3.47;1.08;;;;;;;15.85;72.65;101941.91;4994089;28;20236;-48
2022/07/28 07:04:45;;;;;;;10.88;1.27;;;;;;;15.56;72.35;101938.56;4993761;28;20612;-45
2022/07/28 07:07:11;;;;;;;4.90;1.27;;;;;;;15.49;71.92;101942.47;4993922;28;20181;-44
2022/07/28 07:09:37;;;;;;;2.85;1.02;;;;;;;15.59;71.71;101941.16;4992531;28;20228;-48
2022/07/28 07:12:03;;;;;;;1.30;0.80;;;;;;;15.83;71.70;101944.69;4989454;28;20198;-48
2022/07/28 07:14:29;;;;;;;2.28;1.10;;;;;;;15.72;70.85;101933.47;4974293;28;20182;-49
2022/07/28 07:16:54;;;;;;;4.10;1.10;;;;;;;15.94;71.26;101943.34;4973728;28;20589;-48
2022/07/28 07:19:20;;;;;;;7.18;1.63;;;;;;;15.96;70.06;101945.06;4974009;28;20170;-50
2022/07/28 07:21:47;;;;;;;5.00;1.50;;;;;;;16.06;70.50;101943.69;4973751;28;20210;-48
2022/07/28 07:24:12;;;;;;;8.95;1.45;;;;;;;15.78;70.19;101943.13;4973337;28;20217;-48
2022/07/28 07:26:38;;;;;;;4.43;1.45;;;;;;;16.21;69.65;101939.44;4976781;28;20260;-47
2022/07/28 07:29:05;;;;;;;4.72;1.30;;;;;;;15.55;69.45;101931.44;4990655;28;20229;-49
2022/07/28 07:31:32;;;;;;;5.30;1.05;;;;;;;16.26;69.09;101939.25;4993168;28;20247;-50
2022/07/28 07:33:57;;;;;;;5.80;1.38;;;;;;;16.33;68.25;101943.41;4992605;28;20465;-49
2022/07/28 07:36:23;;;;;;;4.28;1.25;;;;;;;16.73;68.36;101940.75;4991521;28;20166;-50
2022/07/28 07:38:48;;;;;;;2.67;0.90;;;;;;;17.00;67.25;101936.78;4992605;28;20169;-48
2022/07/28 07:41:14;;;;;;;11.50;1.25;;;;;;;16.69;67.43;101948.13;4992696;28;20193;-51
2022/07/28 07:43:39;;;;;;;5.32;1.25;;;;;;;16.83;66.28;101948.38;4991774;28;20177;-49
2022/07/28 07:46:05;;;;;;;3.85;1.23;;;;;;;16.52;67.38;101946.19;4992631;28;20253;-50
2022/07/28 07:48:31;;;;;;;6.10;1.08;;;;;;;16.74;66.95;101950.63;4992802;28;20185;-48
2022/07/28 07:50:56;;;;;;;4.43;1.00;;;;;;;16.84;66.32;101949.28;4992338;28;20703;-50
2022/07/28 07:53:23;;;;;;;9.20;1.70;;;;;;;17.14;66.91;101951.47;4992448;28;20660;-49
2022/07/28 07:55:49;;;;;;;4.38;1.30;;;;;;;17.06;66.47;101944.59;4992952;28;20192;-50
2022/07/28 07:58:15;;;;;;;5.32;1.10;;;;;;;16.63;65.95;101940.28;4992516;28;20168;-51
2022/07/28 08:00:40;;;;;;;3.00;1.05;;;;;;;16.84;66.71;101944.75;4992463;28;20676;-50
2022/07/28 08:03:06;;;;;;;4.00;1.35;;;;;;;17.15;65.43;101937.88;4991863;28;20184;-50
2022/07/28 08:05:31;;;;;;;10.45;1.25;;;;;;;17.12;65.12;101945.25;4992390;28;20237;-45
2022/07/28 08:07:57;;;;;;;3.20;1.08;;;;;;;16.67;64.73;101941.91;4990080;28;20170;-46
2022/07/28 08:10:22;;;;;;;5.30;1.00;;;;;;;17.13;65.63;101949.72;4991096;28;20307;-48
2022/07/28 08:12:48;;;;;;;4.82;1.25;;;;;;;16.99;64.74;101948.56;4992352;28;20533;-44
2022/07/28 08:15:14;;;;;;;2.97;1.08;;;;;;;17.01;63.51;101945.75;4992450;28;20263;-48
2022/07/28 08:17:39;;;;;;;3.30;1.00;;;;;;;16.96;63.06;101953.22;4992186;28;20272;-47
2022/07/28 08:20:05;;;;;;;4.15;1.10;;;;;;;16.47;64.49;101945.53;4992208;28;20149;-49
2022/07/28 08:22:31;;;;;;;2.45;1.00;;;;;;;16.75;64.12;101955.97;4992743;28;20656;-51
2022/07/28 08:24:59;;;;;;;3.80;1.00;;;;;;;16.92;64.03;101951.63;4991913;28;20583;-48
2022/07/28 08:27:25;;;;;;;4.18;1.52;;;;;;;16.97;63.48;101955.00;4992314;28;20181;-52
2022/07/28 08:29:50;;;;;;;4.35;0.95;;;;;;;16.72;63.66;101955.22;4992036;28;20273;-49
2022/07/28 08:32:16;;;;;;;2.63;0.90;;;;;;;16.84;65.10;101952.00;4991517;28;20633;-48
2022/07/28 08:34:41;;;;;;;5.05;1.08;;;;;;;16.55;64.71;101958.69;4973213;28;20218;-54
2022/07/28 08:37:07;;;;;;;4.25;1.30;;;;;;;16.76;64.66;101949.59;4972405;28;20221;-50
2022/07/28 08:39:33;;;;;;;4.05;1.40;;;;;;;16.82;64.68;101954.75;4986590;28;20256;-47
2022/07/28 08:42:16;;;;;;;4.97;1.25;;;;;;;16.77;64.06;101958.59;4991758;28;20204;-49
2022/07/28 08:44:56;;;;;;;4.45;1.10;;;;;;;16.89;64.29;101961.63;4992040;28;20160;-50
2022/07/28 08:47:22;;;;;;;5.07;0.95;;;;;;;16.15;64.25;101960.47;4991878;28;20162;-54
2022/07/28 08:49:50;;;;;;;6.20;1.25;;;;;;;16.57;64.19;101960.38;4991865;28;20197;-49
2022/07/28 08:52:20;;;;;;;4.35;1.05;;;;;;;16.27;65.31;101959.94;4991827;28;20184;-52
2022/07/28 08:54:48;;;;;;;6.47;1.25;;;;;;;16.41;65.65;101956.63;4991168;28;20220;-48
2022/07/28 08:57:24;;;;;;;9.15;1.27;;;;;;;16.50;66.13;101956.19;4974458;28;20232;-50
2022/07/28 08:59:51;;;;;;;4.80;0.82;;;;;;;16.51;65.12;101960.69;4972060;28;20674;-50
2022/07/28 09:02:17;;;;;;;3.50;1.08;;;;;;;16.86;64.83;101955.50;4971367;28;20261;-51
2022/07/28 09:04:45;;;;;;;6.90;1.00;;;;;;;17.20;63.49;101952.06;4982517;28;20182;-50
2022/07/28 09:07:10;;;;;;;3.45;1.27;;;;;;;17.25;63.08;101939.19;4970228;28;20564;-50
2022/07/28 09:09:37;;;;;;;6.55;1.23;;;;;;;17.20;64.61;101949.34;4972190;28;20205;-51
2022/07/28 09:12:04;;;;;;;3.05;1.10;;;;;;;16.81;64.53;101952.97;4971684;28;20197;-52
2022/07/28 09:14:31;;;;;;;1.95;0.68;;;;;;;17.21;64.15;101951.13;4969947;28;20732;-49
2022/07/28 09:17:00;;;;;;;4.70;1.42;;;;;;;17.26;64.41;101957.19;4972018;28;20166;-49
2022/07/28 09:19:26;;;;;;;6.70;1.55;;;;;;;17.24;63.96;101953.66;4971728;28;20166;-49
2022/07/28 09:21:52;;;;;;;5.63;1.20;;;;;;;17.14;64.75;101955.06;4971659;28;20702;-49
2022/07/28 09:24:36;;;;;;;4.15;1.65;;;;;;;17.30;64.09;101956.09;4971126;28;20169;-50
2022/07/28 09:27:10;;;;;;;5.68;1.00;;;;;;;17.42;63.59;101957.31;4977750;28;20193;-48
2022/07/28 09:29:37;;;;;;;2.38;0.75;;;;;;;17.02;64.38;101952.94;4990931;28;20208;-49
2022/07/28 09:32:03;;;;;;;7.28;1.27;;;;;;;16.94;63.56;101952.44;4990543;28;20217;-50
2022/07/28 09:34:43;;;;;;;2.92;0.93;;;;;;;16.72;64.37;101958.81;4990464;28;20277;-48
2022/07/28 09:37:24;;;;;;;3.85;1.20;;;;;;;17.03;65.16;101954.69;4990846;28;20165;-49
2022/07/28 09:39:51;;;;;;;3.50;1.15;;;;;;;16.74;64.78;101954.19;4989528;28;20173;-49
2022/07/28 09:42:18;;;;;;;4.20;1.38;;;;;;;17.27;64.28;101947.22;4991020;28;20621;-49
2022/07/28 09:44:45;;;;;;;3.90;0.95;;;;;;;17.14;63.87;101949.63;4989987;28;20261;-49
2022/07/28 09:47:31;;;;;;;5.05;1.45;;;;;;;16.73;64.39;101952.47;4990788;28;20181;-52
2022/07/28 09:49:58;;;;;;;3.83;1.20;;;;;;;16.80;64.93;101956.66;4990347;28;20586;-50
2022/07/28 09:52:29;;;;;;;4.05;0.88;;;;;;;16.98;64.78;101954.03;4990427;28;20177;-49
2022/07/28 09:55:05;;;;;;;4.57;1.30;;;;;;;17.70;63.87;101940.56;4990008;28;20173;-47
2022/07/28 09:57:32;;;;;;;4.07;1.10;;;;;;;17.54;62.24;101945.00;4990786;28;20188;-50
2022/07/28 09:59:58;;;;;;;3.42;0.90;;;;;;;17.55;62.91;101946.75;4990056;28;20664;-49
2022/07/28 10:02:25;;;;;;;6.43;1.40;;;;;;;17.25;61.61;101950.03;4990438;28;20181;-50
2022/07/28 10:04:52;;;;;;;5.00;0.90;;;;;;;17.43;61.31;101952.78;4989865;28;20189;-49
2022/07/28 10:07:18;;;;;;;4.40;1.27;;;;;;;17.14;61.34;101954.19;4990344;28;20169;-49
2022/07/28 10:09:58;;;;;;;2.17;0.82;;;;;;;16.64;61.78;101944.78;4990489;28;20300;-50
2022/07/28 10:12:34;;;;;;;7.65;1.30;;;;;;;16.82;63.15;101946.63;4990181;28;20165;-49
2022/07/28 10:18:03;;;;;;;5.45;0.80;;;;;;;16.86;63.12;101952.81;4989837;28;20723;-49
2022/07/28 10:20:31;;;;;;;1.45;0.85;;;;;;;16.58;63.29;101955.88;4990496;28;20197;-50
2022/07/28 10:23:01;;;;;;;4.45;1.13;;;;;;;16.62;63.72;101952.06;4990031;28;20591;-50
2022/07/28 10:25:29;;;;;;;4.18;1.33;;;;;;;16.48;64.24;101958.97;4990091;28;20256;-48
2022/07/28 10:27:58;;;;;;;5.75;1.05;;;;;;;16.90;63.79;101943.56;4990307;28;20185;-50
2022/07/28 10:30:25;;;;;;;1.98;0.93;;;;;;;16.82;63.00;101943.94;4990145;28;20715;-51
2022/07/28 10:32:53;;;;;;;4.85;1.00;;;;;;;16.62;63.77;101949.38;4990245;28;20166;-49
2022/07/28 10:35:20;;;;;;;4.78;1.10;;;;;;;16.79;65.06;101954.88;4989986;28;20244;-48
2022/07/28 10:37:57;;;;;;;5.63;1.08;;;;;;;17.39;63.00;101940.34;4989543;28;20185;-49
2022/07/28 10:40:30;;;;;;;4.85;0.95;;;;;;;17.13;62.99;101937.06;4989849;28;20574;-49
2022/07/28 10:42:57;;;;;;;0.98;0.70;;;;;;;17.08;63.48;101933.72;4990618;28;20895;-50
2022/07/28 10:45:23;;;;;;;2.97;0.95;;;;;;;17.33;62.24;101935.22;4990836;28;20169;-50
2022/07/28 10:47:49;;;;;;;2.90;0.77;;;;;;;17.28;61.67;101933.63;4990675;28;20181;-50
2022/07/28 10:50:15;;;;;;;2.05;0.90;;;;;;;17.37;60.56;101926.88;4990292;28;20335;-50
2022/07/28 10:52:42;;;;;;;3.38;0.90;;;;;;;17.63;59.99;101931.00;4990907;28;20173;-50
2022/07/28 10:55:26;;;;;;;3.78;1.30;;;;;;;17.01;60.53;101937.63;4990281;28;20173;-50
2022/07/28 10:58:28;;;;;;;2.30;1.00;;;;;;;17.16;62.28;101945.03;4991002;28;20174;-49
2022/07/28 11:00:54;;;;;;;3.67;1.10;;;;;;;17.51;61.24;101942.44;4989872;28;20207;-48
2022/07/28 11:03:34;;;;;;;7.95;1.33;;;;;;;17.00;60.22;101944.88;4974637;28;20174;-50
2022/07/28 11:06:22;;;;;;;4.70;1.00;;;;;;;17.01;61.17;101943.06;4974414;28;20506;-49
2022/07/28 11:08:47;;;;;;;0.95;0.73;;;;;;;16.79;60.60;101945.88;4974408;28;20198;-51
2022/07/28 11:11:12;;;;;;;1.98;0.90;;;;;;;17.05;61.52;101940.16;4974539;28;20301;-50
2022/07/28 11:13:38;;;;;;;5.65;0.80;;;;;;;17.57;60.40;101935.84;4974049;28;20595;-50
2022/07/28 11:16:12;;;;;;;2.17;0.98;;;;;;;17.68;59.06;101942.47;4974544;28;20170;-50
2022/07/28 11:19:06;;;;;;;3.95;0.77;;;;;;;17.87;58.18;101944.28;4974649;28;20170;-48
2022/07/28 11:21:33;;;;;;;4.07;0.82;;;;;;;17.90;58.57;101949.56;4974215;28;20713;-49
2022/07/28 11:23:59;;;;;;;2.58;0.88;;;;;;;18.16;57.73;101947.34;4972757;28;20202;-49
2022/07/28 11:26:26;;;;;;;2.38;0.98;;;;;;;18.11;58.10;101944.88;4975480;28;20240;-48
2022/07/28 11:29:07;;;;;;;3.90;1.00;;;;;;;18.27;57.58;101939.50;4993868;28;20237;-51
2022/07/28 11:31:44;;;;;;;3.22;0.88;;;;;;;18.09;58.28;101949.50;4993802;28;20192;-49
2022/07/28 11:34:16;;;;;;;2.38;0.95;;;;;;;18.33;57.77;101948.19;4993891;28;20220;-50
2022/07/28 11:36:56;;;;;;;2.63;0.90;;;;;;;18.22;56.63;101949.72;4993614;28;20173;-49
2022/07/28 11:39:25;;;;;;;5.47;0.95;;;;;;;17.76;59.22;101954.78;4993370;28;20161;-49